sensor_id;sensor_type;location;lat;lon;timestamp;pressure;altitude;pressure_sealevel;temperature;humidity
13954;BME280;7049;49.444;8.522;2022-12-18T00:00:50;81125.78;;;-3.47;90.70
13954;BME280;7049;49.444;8.522;2022-12-18T00:05:52;81117.38;;;-3.47;90.92
13954;BME280;7049;49.444;8.522;2022-12-18T00:10:55;81113.19;;;-3.47;91.11
13954;BME280;7049;49.444;8.522;2022-12-18T00:16:01;81117.38;;;-3.47;91.15
13954;BME280;7049;49.444;8.522;2022-12-18T00:21:05;81111.09;;;-3.47;91.62
13954;BME280;7049;49.444;8.522;2022-12-18T00:26:16;81113.19;;;-3.47;91.35
13954;BME280;7049;49.444;8.522;2022-12-18T00:31:20;81109.00;;;-3.47;91.13
13954;BME280;7049;49.444;8.522;2022-12-18T00:36:23;81109.00;;;-3.47;91.51
13954;BME280;7049;49.444;8.522;2022-12-18T00:41:26;81109.00;;;-3.47;91.69
13954;BME280;7049;49.444;8.522;2022-12-18T00:46:45;81100.63;;;-3.47;91.68
13954;BME280;7049;49.444;8.522;2022-12-18T00:51:47;81115.28;;;-3.47;91.24
13954;BME280;7049;49.444;8.522;2022-12-18T00:56:50;81119.47;;;-3.47;90.91
13954;BME280;7049;49.444;8.522;2022-12-18T01:01:52;81125.78;;;-3.47;90.71
13954;BME280;7049;49.444;8.522;2022-12-18T01:06:53;81125.78;;;-3.47;89.68
13954;BME280;7049;49.444;8.522;2022-12-18T01:11:57;81117.38;;;-3.47;89.56
13954;BME280;7049;49.444;8.522;2022-12-18T01:16:58;81121.56;;;-3.47;88.75
13954;BME280;7049;49.444;8.522;2022-12-18T01:21:59;81134.16;;;-3.47;88.34
13954;BME280;7049;49.444;8.522;2022-12-18T01:27:02;81138.34;;;-3.47;88.60
13954;BME280;7049;49.444;8.522;2022-12-18T01:32:04;81146.72;;;-3.47;88.07
13954;BME280;7049;49.444;8.522;2022-12-18T01:37:06;81157.19;;;-3.47;88.02
13954;BME280;7049;49.444;8.522;2022-12-18T01:42:12;81157.19;;;-3.47;88.40
13954;BME280;7049;49.444;8.522;2022-12-18T01:47:15;81146.72;;;-3.47;88.08
13954;BME280;7049;49.444;8.522;2022-12-18T01:52:19;81159.28;;;-3.47;87.69
13954;BME280;7049;49.444;8.522;2022-12-18T01:57:23;81157.19;;;-3.47;88.13
13954;BME280;7049;49.444;8.522;2022-12-18T02:02:26;81171.84;;;-3.47;87.93
13954;BME280;7049;49.444;8.522;2022-12-18T02:07:36;81171.84;;;-3.47;87.97
13954;BME280;7049;49.444;8.522;2022-12-18T02:12:44;81173.94;;;-3.47;88.33
13954;BME280;7049;49.444;8.522;2022-12-18T02:17:50;81176.03;;;-3.47;88.29
13954;BME280;7049;49.444;8.522;2022-12-18T02:23:06;81190.69;;;-3.47;87.89
13954;BME280;7049;49.444;8.522;2022-12-18T02:28:15;81192.78;;;-3.47;87.62
13954;BME280;7049;49.444;8.522;2022-12-18T02:33:19;81192.78;;;-3.47;87.55
13954;BME280;7049;49.444;8.522;2022-12-18T02:38:21;81194.88;;;-3.47;87.55
13954;BME280;7049;49.444;8.522;2022-12-18T02:43:25;81186.50;;;-3.47;87.79
13954;BME280;7049;49.444;8.522;2022-12-18T02:48:31;81192.78;;;-3.47;87.13
13954;BME280;7049;49.444;8.522;2022-12-18T02:53:36;81188.59;;;-3.47;87.11
13954;BME280;7049;49.444;8.522;2022-12-18T02:58:46;81157.19;;;-3.47;87.17
13954;BME280;7049;49.444;8.522;2022-12-18T03:03:54;81188.59;;;-3.47;87.33
13954;BME280;7049;49.444;8.522;2022-12-18T03:08:59;81196.97;;;-3.47;87.56
13954;BME280;7049;49.444;8.522;2022-12-18T03:14:05;81207.44;;;-3.47;87.54
13954;BME280;7049;49.444;8.522;2022-12-18T03:19:11;81199.06;;;-3.47;87.75
13954;BME280;7049;49.444;8.522;2022-12-18T03:24:18;81184.41;;;-3.47;87.69
13954;BME280;7049;49.444;8.522;2022-12-18T03:29:25;81167.66;;;-3.47;87.87
13954;BME280;7049;49.444;8.522;2022-12-18T03:34:31;81213.75;;;-3.47;87.85
13954;BME280;7049;49.444;8.522;2022-12-18T03:39:34;81209.56;;;-3.47;87.41
13954;BME280;7049;49.444;8.522;2022-12-18T03:44:41;81211.63;;;-3.47;87.29
13954;BME280;7049;49.444;8.522;2022-12-18T03:49:47;81205.34;;;-3.47;87.41
13954;BME280;7049;49.444;8.522;2022-12-18T03:54:50;81205.34;;;-3.47;87.45
13954;BME280;7049;49.444;8.522;2022-12-18T03:59:57;81213.75;;;-3.47;87.24
13954;BME280;7049;49.444;8.522;2022-12-18T04:05:03;81213.75;;;-3.47;87.23
13954;BME280;7049;49.444;8.522;2022-12-18T04:10:07;81224.22;;;-3.47;87.45
13954;BME280;7049;49.444;8.522;2022-12-18T04:15:12;81217.94;;;-3.47;87.97
13954;BME280;7049;49.444;8.522;2022-12-18T04:20:14;81213.75;;;-3.47;87.79
13954;BME280;7049;49.444;8.522;2022-12-18T04:25:15;81209.56;;;-3.47;87.46
13954;BME280;7049;49.444;8.522;2022-12-18T04:30:18;81205.34;;;-3.47;87.27
13954;BME280;7049;49.444;8.522;2022-12-18T04:35:20;81205.34;;;-3.47;87.22
13954;BME280;7049;49.444;8.522;2022-12-18T04:45:25;81211.63;;;-3.47;87.62
13954;BME280;7049;49.444;8.522;2022-12-18T04:50:27;81201.16;;;-3.47;87.97
13954;BME280;7049;49.444;8.522;2022-12-18T04:55:28;81217.94;;;-3.47;88.16
13954;BME280;7049;49.444;8.522;2022-12-18T05:00:31;81211.63;;;-3.47;88.63
13954;BME280;7049;49.444;8.522;2022-12-18T05:05:34;81222.13;;;-3.47;88.86
13954;BME280;7049;49.444;8.522;2022-12-18T05:10:36;81226.31;;;-3.47;88.91
13954;BME280;7049;49.444;8.522;2022-12-18T05:15:38;81232.59;;;-3.47;89.07
13954;BME280;7049;49.444;8.522;2022-12-18T05:20:40;81226.31;;;-3.47;89.29
13954;BME280;7049;49.444;8.522;2022-12-18T05:25:41;81226.31;;;-3.47;89.60
13954;BME280;7049;49.444;8.522;2022-12-18T05:30:47;81230.50;;;-3.47;89.32
13954;BME280;7049;49.444;8.522;2022-12-18T05:35:50;81222.13;;;-3.47;89.56
13954;BME280;7049;49.444;8.522;2022-12-18T05:40:53;81220.03;;;-3.47;89.47
13954;BME280;7049;49.444;8.522;2022-12-18T05:45:56;81215.84;;;-3.47;89.49
13954;BME280;7049;49.444;8.522;2022-12-18T05:51:03;81207.44;;;-3.47;89.32
13954;BME280;7049;49.444;8.522;2022-12-18T05:56:07;81207.44;;;-3.47;89.25
13954;BME280;7049;49.444;8.522;2022-12-18T06:01:12;81213.75;;;-3.47;88.85
13954;BME280;7049;49.444;8.522;2022-12-18T06:06:15;81213.75;;;-3.47;88.65
13954;BME280;7049;49.444;8.522;2022-12-18T06:11:19;81220.03;;;-3.47;88.98
13954;BME280;7049;49.444;8.522;2022-12-18T06:16:22;81226.31;;;-3.47;88.88
13954;BME280;7049;49.444;8.522;2022-12-18T06:21:24;81224.22;;;-3.47;89.25
13954;BME280;7049;49.444;8.522;2022-12-18T06:26:25;81226.31;;;-3.47;89.14
13954;BME280;7049;49.444;8.522;2022-12-18T06:31:28;81234.69;;;-3.47;89.47
13954;BME280;7049;49.444;8.522;2022-12-18T06:36:30;81238.88;;;-3.47;89.85
13954;BME280;7049;49.444;8.522;2022-12-18T06:41:31;81226.31;;;-3.47;89.68
13954;BME280;7049;49.444;8.522;2022-12-18T06:46:34;81234.69;;;-3.47;89.74
13954;BME280;7049;49.444;8.522;2022-12-18T06:51:35;81245.16;;;-3.47;89.73
13954;BME280;7049;49.444;8.522;2022-12-18T06:56:37;81247.25;;;-3.47;89.46
13954;BME280;7049;49.444;8.522;2022-12-18T07:01:40;81257.72;;;-3.47;89.29
13954;BME280;7049;49.444;8.522;2022-12-18T07:06:41;81264.00;;;-3.47;89.23
13954;BME280;7049;49.444;8.522;2022-12-18T07:11:43;81268.19;;;-3.47;89.10
13954;BME280;7049;49.444;8.522;2022-12-18T07:16:45;81280.75;;;-3.47;89.02
13954;BME280;7049;49.444;8.522;2022-12-18T07:21:47;81284.94;;;-3.47;88.85
13954;BME280;7049;49.444;8.522;2022-12-18T07:26:48;81284.94;;;-3.47;88.74
13954;BME280;7049;49.444;8.522;2022-12-18T07:31:51;81297.53;;;-3.47;88.64
13954;BME280;7049;49.444;8.522;2022-12-18T07:36:53;81293.31;;;-3.47;88.75
13954;BME280;7049;49.444;8.522;2022-12-18T07:41:54;81293.31;;;-3.47;89.01
13954;BME280;7049;49.444;8.522;2022-12-18T07:47:14;81295.44;;;-3.47;88.89
13954;BME280;7049;49.444;8.522;2022-12-18T07:52:16;81282.84;;;-3.47;88.62
13954;BME280;7049;49.444;8.522;2022-12-18T07:57:17;81293.31;;;-3.47;88.59
13954;BME280;7049;49.444;8.522;2022-12-18T08:02:20;81301.72;;;-3.47;88.63
13954;BME280;7049;49.444;8.522;2022-12-18T08:07:21;81299.63;;;-3.47;88.61
13954;BME280;7049;49.444;8.522;2022-12-18T08:12:23;81301.72;;;-3.47;88.77
13954;BME280;7049;49.444;8.522;2022-12-18T08:17:26;81297.53;;;-3.47;89.35
13954;BME280;7049;49.444;8.522;2022-12-18T08:22:27;81295.44;;;-3.47;89.65
13954;BME280;7049;49.444;8.522;2022-12-18T08:27:29;81287.03;;;-3.47;89.42
13954;BME280;7049;49.444;8.522;2022-12-18T08:32:31;81280.75;;;-3.47;89.49
13954;BME280;7049;49.444;8.522;2022-12-18T08:37:34;81272.38;;;-3.47;89.33
13954;BME280;7049;49.444;8.522;2022-12-18T08:42:35;81253.53;;;-3.47;89.31
13954;BME280;7049;49.444;8.522;2022-12-18T08:47:56;81251.44;;;-3.47;89.07
13954;BME280;7049;49.444;8.522;2022-12-18T08:52:57;81245.16;;;-3.47;89.01
13954;BME280;7049;49.444;8.522;2022-12-18T08:57:59;81224.22;;;-3.47;88.90
13954;BME280;7049;49.444;8.522;2022-12-18T09:03:01;81201.16;;;-3.47;88.79
13954;BME280;7049;49.444;8.522;2022-12-18T09:08:03;81190.69;;;-3.47;88.77
13954;BME280;7049;49.444;8.522;2022-12-18T09:13:04;81190.69;;;-3.47;88.75
13954;BME280;7049;49.444;8.522;2022-12-18T09:18:07;81171.84;;;-3.47;88.67
13954;BME280;7049;49.444;8.522;2022-12-18T09:23:10;81159.28;;;-3.47;88.76
13954;BME280;7049;49.444;8.522;2022-12-18T09:28:13;81150.91;;;-3.47;88.59
13954;BME280;7049;49.444;8.522;2022-12-18T09:33:17;81159.28;;;-3.47;88.01
13954;BME280;7049;49.444;8.522;2022-12-18T09:38:19;81146.72;;;-3.47;88.58
13954;BME280;7049;49.444;8.522;2022-12-18T09:43:24;81134.16;;;-3.47;88.97
13954;BME280;7049;49.444;8.522;2022-12-18T09:48:31;81088.06;;;-3.47;88.77
13954;BME280;7049;49.444;8.522;2022-12-18T09:53:36;81052.47;;;-3.47;87.88
13954;BME280;7049;49.444;8.522;2022-12-18T09:58:41;81000.09;;;-3.47;86.27
13954;BME280;7049;49.444;8.522;2022-12-18T10:03:47;80941.47;;;-3.47;84.93
13954;BME280;7049;49.444;8.522;2022-12-18T10:08:52;80880.72;;;-3.47;83.62
13954;BME280;7049;49.444;8.522;2022-12-18T10:13:58;80807.41;;;-3.47;82.17
13954;BME280;7049;49.444;8.522;2022-12-18T10:19:18;80759.25;;;-3.47;80.87
13954;BME280;7049;49.444;8.522;2022-12-18T10:24:30;80715.28;;;-3.47;79.33
13954;BME280;7049;49.444;8.522;2022-12-18T10:29:34;80704.81;;;-3.47;78.54
13954;BME280;7049;49.444;8.522;2022-12-18T10:34:37;80669.19;;;-3.47;78.82
13954;BME280;7049;49.444;8.522;2022-12-18T10:39:38;80644.06;;;-3.47;78.06
13954;BME280;7049;49.444;8.522;2022-12-18T10:44:40;80627.31;;;-3.47;78.60
13954;BME280;7049;49.444;8.522;2022-12-18T10:49:48;80614.75;;;-3.47;78.53
13954;BME280;7049;49.444;8.522;2022-12-18T10:54:52;80602.19;;;-3.47;79.23
13954;BME280;7049;49.444;8.522;2022-12-18T10:59:56;80579.16;;;-3.47;77.14
13954;BME280;7049;49.444;8.522;2022-12-18T11:05:00;80545.66;;;-3.47;76.71
13954;BME280;7049;49.444;8.522;2022-12-18T11:10:02;80501.66;;;-3.47;75.92
13954;BME280;7049;49.444;8.522;2022-12-18T11:15:04;80472.34;;;-3.47;73.83
13954;BME280;7049;49.444;8.522;2022-12-18T11:20:23;80451.41;;;-3.47;73.09
13954;BME280;7049;49.444;8.522;2022-12-18T11:25:28;80455.59;;;-3.47;71.88
13954;BME280;7049;49.444;8.522;2022-12-18T11:30:31;80468.16;;;-3.47;71.31
13954;BME280;7049;49.444;8.522;2022-12-18T11:35:42;80447.22;;;-3.47;73.14
13954;BME280;7049;49.444;8.522;2022-12-18T11:40:49;80436.75;;;-3.47;73.09
13954;BME280;7049;49.444;8.522;2022-12-18T11:45:55;80426.28;;;-3.47;72.85
13954;BME280;7049;49.444;8.522;2022-12-18T11:51:00;80413.72;;;-3.47;73.39
13954;BME280;7049;49.444;8.522;2022-12-18T11:56:17;80403.25;;;-3.47;74.10
13954;BME280;7049;49.444;8.522;2022-12-18T12:01:39;80424.19;;;-3.47;73.85
13954;BME280;7049;49.444;8.522;2022-12-18T12:06:54;80455.59;;;-3.47;73.33
13954;BME280;7049;49.444;8.522;2022-12-18T12:12:09;80466.06;;;-3.47;74.33
13954;BME280;7049;49.444;8.522;2022-12-18T12:17:21;80470.25;;;-3.47;74.78
13954;BME280;7049;49.444;8.522;2022-12-18T12:22:35;80472.34;;;-3.47;75.17
13954;BME280;7049;49.444;8.522;2022-12-18T12:27:44;80455.59;;;-3.47;76.97
13954;BME280;7049;49.444;8.522;2022-12-18T12:33:03;80466.06;;;-3.47;78.25
13954;BME280;7049;49.444;8.522;2022-12-18T12:38:11;80478.63;;;-3.47;78.44
13954;BME280;7049;49.444;8.522;2022-12-18T12:43:22;80474.44;;;-3.47;78.53
13954;BME280;7049;49.444;8.522;2022-12-18T12:48:35;80472.34;;;-3.47;78.67
13954;BME280;7049;49.444;8.522;2022-12-18T12:53:40;80468.16;;;-3.47;79.40
13954;BME280;7049;49.444;8.522;2022-12-18T12:58:49;80472.34;;;-3.47;79.82
13954;BME280;7049;49.444;8.522;2022-12-18T13:04:02;80468.16;;;-3.47;79.81
13954;BME280;7049;49.444;8.522;2022-12-18T13:09:06;80472.34;;;-3.47;80.22
13954;BME280;7049;49.444;8.522;2022-12-18T13:14:20;80468.16;;;-3.47;80.66
13954;BME280;7049;49.444;8.522;2022-12-18T13:19:23;80459.78;;;-3.47;80.96
13954;BME280;7049;49.444;8.522;2022-12-18T13:24:30;80470.25;;;-3.47;81.26
13954;BME280;7049;49.444;8.522;2022-12-18T13:29:44;80474.44;;;-3.47;81.91
13954;BME280;7049;49.444;8.522;2022-12-18T13:34:46;80472.34;;;-3.47;82.12
13954;BME280;7049;49.444;8.522;2022-12-18T13:39:48;80468.16;;;-3.47;82.02
13954;BME280;7049;49.444;8.522;2022-12-18T13:44:50;80472.34;;;-3.47;82.13
13954;BME280;7049;49.444;8.522;2022-12-18T13:49:52;80476.53;;;-3.47;82.38
13954;BME280;7049;49.444;8.522;2022-12-18T13:54:57;80487.00;;;-3.47;82.87
13954;BME280;7049;49.444;8.522;2022-12-18T14:00:23;80497.47;;;-3.47;83.07
13954;BME280;7049;49.444;8.522;2022-12-18T14:05:27;80505.84;;;-3.47;83.11
13954;BME280;7049;49.444;8.522;2022-12-18T14:10:31;80514.22;;;-3.47;83.22
13954;BME280;7049;49.444;8.522;2022-12-18T14:15:34;80522.59;;;-3.47;83.40
13954;BME280;7049;49.444;8.522;2022-12-18T14:20:36;80522.59;;;-3.47;83.67
13954;BME280;7049;49.444;8.522;2022-12-18T14:25:45;80530.97;;;-3.47;83.96
13954;BME280;7049;49.444;8.522;2022-12-18T14:30:48;80537.28;;;-3.47;84.21
13954;BME280;7049;49.444;8.522;2022-12-18T14:35:56;80530.97;;;-3.47;84.62
13954;BME280;7049;49.444;8.522;2022-12-18T14:41:00;80547.75;;;-3.47;84.68
13954;BME280;7049;49.444;8.522;2022-12-18T14:46:03;80556.13;;;-3.47;85.16
13954;BME280;7049;49.444;8.522;2022-12-18T14:51:15;80551.94;;;-3.47;85.29
13954;BME280;7049;49.444;8.522;2022-12-18T14:56:21;80568.69;;;-3.47;85.68
13954;BME280;7049;49.444;8.522;2022-12-18T15:01:28;80558.22;;;-3.47;85.84
13954;BME280;7049;49.444;8.522;2022-12-18T15:06:33;80556.13;;;-3.47;85.81
13954;BME280;7049;49.444;8.522;2022-12-18T15:11:45;80564.50;;;-3.47;86.29
13954;BME280;7049;49.444;8.522;2022-12-18T15:16:52;80568.69;;;-3.47;86.44
13954;BME280;7049;49.444;8.522;2022-12-18T15:21:54;80577.06;;;-3.47;86.49
13954;BME280;7049;49.444;8.522;2022-12-18T15:26:57;80587.53;;;-3.47;86.60
13954;BME280;7049;49.444;8.522;2022-12-18T15:32:00;80598.00;;;-3.47;86.44
13954;BME280;7049;49.444;8.522;2022-12-18T15:37:02;80598.00;;;-3.47;86.76
13954;BME280;7049;49.444;8.522;2022-12-18T15:42:08;80608.47;;;-3.47;86.59
13954;BME280;7049;49.444;8.522;2022-12-18T15:47:28;80614.75;;;-3.47;86.61
13954;BME280;7049;49.444;8.522;2022-12-18T15:52:40;80614.75;;;-3.47;86.52
13954;BME280;7049;49.444;8.522;2022-12-18T15:57:43;80623.13;;;-3.47;86.71
13954;BME280;7049;49.444;8.522;2022-12-18T16:02:45;80635.69;;;-3.47;86.63
13954;BME280;7049;49.444;8.522;2022-12-18T16:07:46;80635.69;;;-3.47;86.25
13954;BME280;7049;49.444;8.522;2022-12-18T16:12:49;80646.16;;;-3.47;86.52
13954;BME280;7049;49.444;8.522;2022-12-18T16:17:51;80644.06;;;-3.47;86.10
13954;BME280;7049;49.444;8.522;2022-12-18T16:22:52;80650.34;;;-3.47;86.67
13954;BME280;7049;49.444;8.522;2022-12-18T16:27:55;80654.53;;;-3.47;86.38
13954;BME280;7049;49.444;8.522;2022-12-18T16:32:57;80656.63;;;-3.47;86.68
13954;BME280;7049;49.444;8.522;2022-12-18T16:37:59;80650.34;;;-3.47;86.61
13954;BME280;7049;49.444;8.522;2022-12-18T16:43:02;80650.34;;;-3.47;87.15
13954;BME280;7049;49.444;8.522;2022-12-18T16:48:03;80648.25;;;-3.47;87.26
13954;BME280;7049;49.444;8.522;2022-12-18T16:53:05;80646.16;;;-3.47;87.35
13954;BME280;7049;49.444;8.522;2022-12-18T16:58:08;80641.97;;;-3.47;87.06
13954;BME280;7049;49.444;8.522;2022-12-18T17:03:09;80648.25;;;-3.47;87.19
13954;BME280;7049;49.444;8.522;2022-12-18T17:08:11;80650.34;;;-3.47;87.67
13954;BME280;7049;49.444;8.522;2022-12-18T17:13:14;80646.16;;;-3.47;87.84
13954;BME280;7049;49.444;8.522;2022-12-18T17:18:15;80648.25;;;-3.47;88.03
13954;BME280;7049;49.444;8.522;2022-12-18T17:23:17;80652.44;;;-3.47;88.64
13954;BME280;7049;49.444;8.522;2022-12-18T17:28:19;80650.34;;;-3.47;88.70
13954;BME280;7049;49.444;8.522;2022-12-18T17:33:22;80658.72;;;-3.47;88.90
13954;BME280;7049;49.444;8.522;2022-12-18T17:38:24;80654.53;;;-3.47;88.98
13954;BME280;7049;49.444;8.522;2022-12-18T17:43:26;80652.44;;;-3.47;88.74
13954;BME280;7049;49.444;8.522;2022-12-18T17:48:29;80656.63;;;-3.47;88.64
13954;BME280;7049;49.444;8.522;2022-12-18T17:53:31;80648.25;;;-3.47;89.33
13954;BME280;7049;49.444;8.522;2022-12-18T17:58:35;80650.34;;;-3.47;89.44
13954;BME280;7049;49.444;8.522;2022-12-18T18:03:37;80646.16;;;-3.47;89.71
13954;BME280;7049;49.444;8.522;2022-12-18T18:08:38;80648.25;;;-3.47;89.96
13954;BME280;7049;49.444;8.522;2022-12-18T18:13:41;80635.69;;;-3.47;89.92
13954;BME280;7049;49.444;8.522;2022-12-18T18:19:03;80637.78;;;-3.47;89.98
13954;BME280;7049;49.444;8.522;2022-12-18T18:24:05;80648.25;;;-3.47;90.15
13954;BME280;7049;49.444;8.522;2022-12-18T18:29:10;80644.06;;;-3.47;90.39
13954;BME280;7049;49.444;8.522;2022-12-18T18:34:13;80656.63;;;-3.47;90.23
13954;BME280;7049;49.444;8.522;2022-12-18T18:39:15;80648.25;;;-3.47;90.54
13954;BME280;7049;49.444;8.522;2022-12-18T18:44:19;80648.25;;;-3.47;90.38
13954;BME280;7049;49.444;8.522;2022-12-18T18:49:22;80646.16;;;-3.47;90.71
13954;BME280;7049;49.444;8.522;2022-12-18T18:54:26;80635.69;;;-3.47;91.02
13954;BME280;7049;49.444;8.522;2022-12-18T18:59:29;80631.50;;;-3.47;91.08
13954;BME280;7049;49.444;8.522;2022-12-18T19:04:32;80631.50;;;-3.47;90.92
13954;BME280;7049;49.444;8.522;2022-12-18T19:09:34;80627.31;;;-3.47;90.88
13954;BME280;7049;49.444;8.522;2022-12-18T19:14:38;80610.56;;;-3.47;91.04
13954;BME280;7049;49.444;8.522;2022-12-18T19:19:39;80623.13;;;-3.47;90.94
13954;BME280;7049;49.444;8.522;2022-12-18T19:24:40;80612.66;;;-3.47;91.00
13954;BME280;7049;49.444;8.522;2022-12-18T19:29:43;80604.28;;;-3.47;91.35
13954;BME280;7049;49.444;8.522;2022-12-18T19:34:45;80598.00;;;-3.47;91.69
13954;BME280;7049;49.444;8.522;2022-12-18T19:39:46;80602.19;;;-3.47;91.82
13954;BME280;7049;49.444;8.522;2022-12-18T19:44:49;80606.38;;;-3.47;91.67
13954;BME280;7049;49.444;8.522;2022-12-18T19:49:50;80604.28;;;-3.47;91.98
13954;BME280;7049;49.444;8.522;2022-12-18T19:54:52;80585.44;;;-3.47;91.82
13954;BME280;7049;49.444;8.522;2022-12-18T19:59:55;80591.72;;;-3.47;91.80
13954;BME280;7049;49.444;8.522;2022-12-18T20:04:56;80583.34;;;-3.47;91.60
13954;BME280;7049;49.444;8.522;2022-12-18T20:09:58;80574.97;;;-3.47;91.31
13954;BME280;7049;49.444;8.522;2022-12-18T20:15:00;80568.69;;;-3.47;91.31
13954;BME280;7049;49.444;8.522;2022-12-18T20:20:02;80581.25;;;-3.47;91.40
13954;BME280;7049;49.444;8.522;2022-12-18T20:25:05;80589.63;;;-3.47;91.10
13954;BME280;7049;49.444;8.522;2022-12-18T20:30:10;80581.25;;;-3.47;91.31
13954;BME280;7049;49.444;8.522;2022-12-18T20:35:12;80577.06;;;-3.47;91.13
13954;BME280;7049;49.444;8.522;2022-12-18T20:40:13;80577.06;;;-3.47;91.71
13954;BME280;7049;49.444;8.522;2022-12-18T20:45:16;80579.16;;;-3.47;91.26
13954;BME280;7049;49.444;8.522;2022-12-18T20:50:18;80568.69;;;-3.47;91.39
13954;BME280;7049;49.444;8.522;2022-12-18T20:55:19;80577.06;;;-3.47;91.31
13954;BME280;7049;49.444;8.522;2022-12-18T21:00:22;80572.88;;;-3.47;91.67
13954;BME280;7049;49.444;8.522;2022-12-18T21:05:24;80572.88;;;-3.47;91.85
13954;BME280;7049;49.444;8.522;2022-12-18T21:10:25;80572.88;;;-3.47;91.93
13954;BME280;7049;49.444;8.522;2022-12-18T21:15:28;80570.78;;;-3.47;92.18
13954;BME280;7049;49.444;8.522;2022-12-18T21:20:30;80583.34;;;-3.47;92.49
13954;BME280;7049;49.444;8.522;2022-12-18T21:25:31;80579.16;;;-3.47;92.47
13954;BME280;7049;49.444;8.522;2022-12-18T21:30:34;80564.50;;;-3.47;92.54
13954;BME280;7049;49.444;8.522;2022-12-18T21:35:35;80577.06;;;-3.47;92.84
13954;BME280;7049;49.444;8.522;2022-12-18T21:40:37;80558.22;;;-3.47;92.64
13954;BME280;7049;49.444;8.522;2022-12-18T21:45:40;80564.50;;;-3.47;92.55
13954;BME280;7049;49.444;8.522;2022-12-18T21:50:42;80560.31;;;-3.47;92.49
13954;BME280;7049;49.444;8.522;2022-12-18T21:55:43;80549.84;;;-3.47;92.73
13954;BME280;7049;49.444;8.522;2022-12-18T22:00:46;80566.59;;;-3.47;92.88
13954;BME280;7049;49.444;8.522;2022-12-18T22:05:47;80598.00;;;-3.47;93.05
13954;BME280;7049;49.444;8.522;2022-12-18T22:10:49;80572.88;;;-3.47;92.84
13954;BME280;7049;49.444;8.522;2022-12-18T22:15:51;80574.97;;;-3.47;92.83
13954;BME280;7049;49.444;8.522;2022-12-18T22:20:59;80579.16;;;-3.47;92.72
13954;BME280;7049;49.444;8.522;2022-12-18T22:26:01;80560.31;;;-3.47;92.93
13954;BME280;7049;49.444;8.522;2022-12-18T22:31:04;80560.31;;;-3.47;92.67
13954;BME280;7049;49.444;8.522;2022-12-18T22:36:06;80564.50;;;-3.47;92.62
13954;BME280;7049;49.444;8.522;2022-12-18T22:41:08;80568.69;;;-3.47;92.81
13954;BME280;7049;49.444;8.522;2022-12-18T22:46:14;80570.78;;;-3.47;93.13
13954;BME280;7049;49.444;8.522;2022-12-18T22:51:17;80564.50;;;-3.47;93.04
13954;BME280;7049;49.444;8.522;2022-12-18T22:56:19;80570.78;;;-3.47;93.08
13954;BME280;7049;49.444;8.522;2022-12-18T23:01:23;80560.31;;;-3.47;93.18
13954;BME280;7049;49.444;8.522;2022-12-18T23:06:26;80566.59;;;-3.47;92.97
13954;BME280;7049;49.444;8.522;2022-12-18T23:11:28;80560.31;;;-3.47;92.95
13954;BME280;7049;49.444;8.522;2022-12-18T23:16:31;80554.03;;;-3.47;92.53
13954;BME280;7049;49.444;8.522;2022-12-18T23:21:32;80549.84;;;-3.47;92.68
13954;BME280;7049;49.444;8.522;2022-12-18T23:26:34;80543.56;;;-3.47;92.95
13954;BME280;7049;49.444;8.522;2022-12-18T23:31:37;80541.44;;;-3.47;93.22
13954;BME280;7049;49.444;8.522;2022-12-18T23:36:39;80535.16;;;-3.47;93.05
13954;BME280;7049;49.444;8.522;2022-12-18T23:41:41;80539.38;;;-3.47;93.59
13954;BME280;7049;49.444;8.522;2022-12-18T23:46:43;80526.78;;;-3.47;93.55
13954;BME280;7049;49.444;8.522;2022-12-18T23:51:45;80514.22;;;-3.47;93.32
13954;BME280;7049;49.444;8.522;2022-12-18T23:56:47;80507.94;;;-3.47;93.70
